sensor_id;sensor_type;location;lat;lon;timestamp;P1;durP1;ratioP1;P2;durP2;ratioP2
20026;SDS011;10174;42.688;23.344;2023-11-19T00:01:07;6.85;;;3.92;;
20026;SDS011;10174;42.688;23.344;2023-11-19T00:03:33;6.22;;;3.72;;
20026;SDS011;10174;42.688;23.344;2023-11-19T00:05:58;7.40;;;4.03;;
20026;SDS011;10174;42.688;23.344;2023-11-19T00:08:24;9.02;;;4.20;;
20026;SDS011;10174;42.688;23.344;2023-11-19T00:10:50;4.95;;;3.90;;
20026;SDS011;10174;42.688;23.344;2023-11-19T00:13:16;5.90;;;4.05;;
20026;SDS011;10174;42.688;23.344;2023-11-19T00:15:41;7.25;;;3.97;;
20026;SDS011;10174;42.688;23.344;2023-11-19T00:18:07;7.03;;;3.97;;
20026;SDS011;10174;42.688;23.344;2023-11-19T00:20:33;6.57;;;3.67;;
20026;SDS011;10174;42.688;23.344;2023-11-19T00:22:58;6.63;;;4.22;;
20026;SDS011;10174;42.688;23.344;2023-11-19T00:25:23;5.75;;;4.07;;
20026;SDS011;10174;42.688;23.344;2023-11-19T00:27:50;4.95;;;3.78;;
20026;SDS011;10174;42.688;23.344;2023-11-19T00:30:18;10.15;;;4.32;;
20026;SDS011;10174;42.688;23.344;2023-11-19T00:32:43;5.45;;;3.90;;
20026;SDS011;10174;42.688;23.344;2023-11-19T00:35:10;5.97;;;3.83;;
20026;SDS011;10174;42.688;23.344;2023-11-19T00:37:36;8.20;;;4.13;;
20026;SDS011;10174;42.688;23.344;2023-11-19T00:40:01;5.68;;;3.78;;
20026;SDS011;10174;42.688;23.344;2023-11-19T00:42:30;7.22;;;4.25;;
20026;SDS011;10174;42.688;23.344;2023-11-19T00:44:56;6.93;;;4.50;;
20026;SDS011;10174;42.688;23.344;2023-11-19T00:47:21;5.65;;;3.90;;
20026;SDS011;10174;42.688;23.344;2023-11-19T00:49:47;7.70;;;4.20;;
20026;SDS011;10174;42.688;23.344;2023-11-19T00:52:15;6.45;;;4.30;;
20026;SDS011;10174;42.688;23.344;2023-11-19T00:54:42;5.85;;;3.75;;
20026;SDS011;10174;42.688;23.344;2023-11-19T00:57:07;6.68;;;4.20;;
20026;SDS011;10174;42.688;23.344;2023-11-19T00:59:33;9.02;;;3.92;;
20026;SDS011;10174;42.688;23.344;2023-11-19T01:01:58;6.32;;;4.30;;
20026;SDS011;10174;42.688;23.344;2023-11-19T01:04:28;7.45;;;4.30;;
20026;SDS011;10174;42.688;23.344;2023-11-19T01:06:54;6.75;;;4.50;;
20026;SDS011;10174;42.688;23.344;2023-11-19T01:09:19;5.65;;;4.03;;
20026;SDS011;10174;42.688;23.344;2023-11-19T01:11:45;9.95;;;3.70;;
20026;SDS011;10174;42.688;23.344;2023-11-19T01:14:10;6.70;;;4.18;;
20026;SDS011;10174;42.688;23.344;2023-11-19T01:16:35;6.35;;;3.85;;
20026;SDS011;10174;42.688;23.344;2023-11-19T01:19:01;4.82;;;3.75;;
20026;SDS011;10174;42.688;23.344;2023-11-19T01:21:29;11.90;;;3.88;;
20026;SDS011;10174;42.688;23.344;2023-11-19T01:23:55;6.13;;;3.67;;
20026;SDS011;10174;42.688;23.344;2023-11-19T01:26:22;7.05;;;4.28;;
20026;SDS011;10174;42.688;23.344;2023-11-19T01:28:47;7.93;;;3.90;;
20026;SDS011;10174;42.688;23.344;2023-11-19T01:31:16;6.90;;;3.85;;
20026;SDS011;10174;42.688;23.344;2023-11-19T01:33:41;10.55;;;3.97;;
20026;SDS011;10174;42.688;23.344;2023-11-19T01:36:07;4.72;;;3.28;;
20026;SDS011;10174;42.688;23.344;2023-11-19T01:38:33;6.68;;;3.78;;
20026;SDS011;10174;42.688;23.344;2023-11-19T01:40:59;5.95;;;3.80;;
20026;SDS011;10174;42.688;23.344;2023-11-19T01:43:33;5.32;;;3.50;;
20026;SDS011;10174;42.688;23.344;2023-11-19T01:45:59;7.72;;;4.10;;
20026;SDS011;10174;42.688;23.344;2023-11-19T01:48:25;5.47;;;3.47;;
20026;SDS011;10174;42.688;23.344;2023-11-19T01:50:51;5.15;;;3.97;;
20026;SDS011;10174;42.688;23.344;2023-11-19T01:53:18;5.53;;;3.55;;
20026;SDS011;10174;42.688;23.344;2023-11-19T01:55:44;6.10;;;3.78;;
20026;SDS011;10174;42.688;23.344;2023-11-19T01:58:11;7.05;;;3.85;;
20026;SDS011;10174;42.688;23.344;2023-11-19T02:00:37;17.42;;;4.00;;
20026;SDS011;10174;42.688;23.344;2023-11-19T02:03:03;7.85;;;3.78;;
20026;SDS011;10174;42.688;23.344;2023-11-19T02:05:33;5.68;;;3.67;;
20026;SDS011;10174;42.688;23.344;2023-11-19T02:08:00;9.32;;;3.78;;
20026;SDS011;10174;42.688;23.344;2023-11-19T02:10:26;8.15;;;3.45;;
20026;SDS011;10174;42.688;23.344;2023-11-19T02:12:51;5.82;;;3.67;;
20026;SDS011;10174;42.688;23.344;2023-11-19T02:15:17;4.93;;;3.30;;
20026;SDS011;10174;42.688;23.344;2023-11-19T02:17:47;7.90;;;3.88;;
20026;SDS011;10174;42.688;23.344;2023-11-19T02:20:12;5.50;;;3.72;;
20026;SDS011;10174;42.688;23.344;2023-11-19T02:22:40;6.32;;;3.65;;
20026;SDS011;10174;42.688;23.344;2023-11-19T02:25:11;6.68;;;3.92;;
20026;SDS011;10174;42.688;23.344;2023-11-19T02:27:53;6.43;;;3.13;;
20026;SDS011;10174;42.688;23.344;2023-11-19T02:30:23;5.85;;;3.40;;
20026;SDS011;10174;42.688;23.344;2023-11-19T02:33:00;5.22;;;3.58;;
20026;SDS011;10174;42.688;23.344;2023-11-19T02:35:31;6.25;;;3.50;;
20026;SDS011;10174;42.688;23.344;2023-11-19T02:37:57;7.00;;;3.58;;
20026;SDS011;10174;42.688;23.344;2023-11-19T02:40:28;4.80;;;3.28;;
20026;SDS011;10174;42.688;23.344;2023-11-19T02:42:54;4.82;;;3.20;;
20026;SDS011;10174;42.688;23.344;2023-11-19T02:45:23;6.28;;;3.65;;
20026;SDS011;10174;42.688;23.344;2023-11-19T02:47:50;6.30;;;3.85;;
20026;SDS011;10174;42.688;23.344;2023-11-19T02:50:17;6.38;;;4.03;;
20026;SDS011;10174;42.688;23.344;2023-11-19T02:52:50;11.65;;;4.07;;
20026;SDS011;10174;42.688;23.344;2023-11-19T02:55:17;4.78;;;3.55;;
20026;SDS011;10174;42.688;23.344;2023-11-19T02:57:43;5.25;;;3.70;;
20026;SDS011;10174;42.688;23.344;2023-11-19T03:00:15;7.35;;;3.92;;
20026;SDS011;10174;42.688;23.344;2023-11-19T03:02:41;8.52;;;3.90;;
20026;SDS011;10174;42.688;23.344;2023-11-19T03:05:11;6.85;;;3.80;;
20026;SDS011;10174;42.688;23.344;2023-11-19T03:07:39;6.72;;;4.20;;
20026;SDS011;10174;42.688;23.344;2023-11-19T03:10:11;7.32;;;4.25;;
20026;SDS011;10174;42.688;23.344;2023-11-19T03:12:40;6.82;;;4.00;;
20026;SDS011;10174;42.688;23.344;2023-11-19T03:15:06;6.05;;;3.85;;
20026;SDS011;10174;42.688;23.344;2023-11-19T03:17:32;7.00;;;4.10;;
20026;SDS011;10174;42.688;23.344;2023-11-19T03:19:59;4.93;;;3.63;;
20026;SDS011;10174;42.688;23.344;2023-11-19T03:22:26;5.82;;;3.70;;
20026;SDS011;10174;42.688;23.344;2023-11-19T03:24:51;6.43;;;3.90;;
20026;SDS011;10174;42.688;23.344;2023-11-19T03:27:17;8.02;;;5.07;;
20026;SDS011;10174;42.688;23.344;2023-11-19T03:29:42;5.18;;;3.83;;
20026;SDS011;10174;42.688;23.344;2023-11-19T03:32:08;6.07;;;4.25;;
20026;SDS011;10174;42.688;23.344;2023-11-19T03:34:33;8.40;;;4.13;;
20026;SDS011;10174;42.688;23.344;2023-11-19T03:36:59;5.55;;;3.08;;
20026;SDS011;10174;42.688;23.344;2023-11-19T03:39:24;6.35;;;4.05;;
20026;SDS011;10174;42.688;23.344;2023-11-19T03:41:50;7.45;;;4.07;;
20026;SDS011;10174;42.688;23.344;2023-11-19T03:44:16;6.90;;;4.03;;
20026;SDS011;10174;42.688;23.344;2023-11-19T03:46:41;7.07;;;3.97;;
20026;SDS011;10174;42.688;23.344;2023-11-19T03:49:07;5.85;;;3.63;;
20026;SDS011;10174;42.688;23.344;2023-11-19T03:51:32;5.40;;;3.75;;
20026;SDS011;10174;42.688;23.344;2023-11-19T03:53:59;5.13;;;3.42;;
20026;SDS011;10174;42.688;23.344;2023-11-19T03:56:25;6.55;;;3.95;;
20026;SDS011;10174;42.688;23.344;2023-11-19T03:58:52;6.85;;;4.13;;
20026;SDS011;10174;42.688;23.344;2023-11-19T04:01:17;6.15;;;3.58;;
20026;SDS011;10174;42.688;23.344;2023-11-19T04:03:43;7.63;;;3.55;;
20026;SDS011;10174;42.688;23.344;2023-11-19T04:06:09;8.85;;;3.60;;
20026;SDS011;10174;42.688;23.344;2023-11-19T04:08:34;5.45;;;3.60;;
20026;SDS011;10174;42.688;23.344;2023-11-19T04:11:00;6.22;;;3.72;;
20026;SDS011;10174;42.688;23.344;2023-11-19T04:13:27;7.47;;;3.53;;
20026;SDS011;10174;42.688;23.344;2023-11-19T04:15:53;7.40;;;4.10;;
20026;SDS011;10174;42.688;23.344;2023-11-19T04:18:18;8.32;;;3.75;;
20026;SDS011;10174;42.688;23.344;2023-11-19T04:20:43;5.10;;;3.70;;
20026;SDS011;10174;42.688;23.344;2023-11-19T04:23:09;6.53;;;3.60;;
20026;SDS011;10174;42.688;23.344;2023-11-19T04:25:35;7.13;;;3.72;;
20026;SDS011;10174;42.688;23.344;2023-11-19T04:28:00;5.97;;;3.72;;
20026;SDS011;10174;42.688;23.344;2023-11-19T04:30:27;10.70;;;3.85;;
20026;SDS011;10174;42.688;23.344;2023-11-19T04:32:52;5.72;;;4.00;;
20026;SDS011;10174;42.688;23.344;2023-11-19T04:35:18;6.22;;;4.30;;
20026;SDS011;10174;42.688;23.344;2023-11-19T04:37:44;5.72;;;3.75;;
20026;SDS011;10174;42.688;23.344;2023-11-19T04:40:09;8.25;;;4.07;;
20026;SDS011;10174;42.688;23.344;2023-11-19T04:42:37;7.10;;;4.10;;
20026;SDS011;10174;42.688;23.344;2023-11-19T04:45:05;10.27;;;4.18;;
20026;SDS011;10174;42.688;23.344;2023-11-19T04:47:32;6.55;;;3.88;;
20026;SDS011;10174;42.688;23.344;2023-11-19T04:49:58;6.65;;;4.28;;
20026;SDS011;10174;42.688;23.344;2023-11-19T04:52:23;7.70;;;4.30;;
20026;SDS011;10174;42.688;23.344;2023-11-19T04:54:49;7.50;;;4.00;;
20026;SDS011;10174;42.688;23.344;2023-11-19T04:57:14;7.03;;;4.18;;
20026;SDS011;10174;42.688;23.344;2023-11-19T04:59:40;8.00;;;4.30;;
20026;SDS011;10174;42.688;23.344;2023-11-19T05:02:06;7.72;;;4.18;;
20026;SDS011;10174;42.688;23.344;2023-11-19T05:04:33;6.55;;;3.63;;
20026;SDS011;10174;42.688;23.344;2023-11-19T05:06:58;5.78;;;3.97;;
20026;SDS011;10174;42.688;23.344;2023-11-19T05:09:24;6.15;;;3.80;;
20026;SDS011;10174;42.688;23.344;2023-11-19T05:11:49;18.23;;;6.68;;
20026;SDS011;10174;42.688;23.344;2023-11-19T05:14:15;6.55;;;3.97;;
20026;SDS011;10174;42.688;23.344;2023-11-19T05:16:41;6.18;;;3.65;;
20026;SDS011;10174;42.688;23.344;2023-11-19T05:19:07;6.03;;;3.85;;
20026;SDS011;10174;42.688;23.344;2023-11-19T05:21:33;5.78;;;3.92;;
20026;SDS011;10174;42.688;23.344;2023-11-19T05:24:00;6.32;;;4.03;;
20026;SDS011;10174;42.688;23.344;2023-11-19T05:26:29;6.80;;;4.22;;
20026;SDS011;10174;42.688;23.344;2023-11-19T05:28:55;12.63;;;4.05;;
20026;SDS011;10174;42.688;23.344;2023-11-19T05:31:20;7.53;;;4.18;;
20026;SDS011;10174;42.688;23.344;2023-11-19T05:33:46;6.80;;;4.15;;
20026;SDS011;10174;42.688;23.344;2023-11-19T05:36:12;5.40;;;3.75;;
20026;SDS011;10174;42.688;23.344;2023-11-19T05:38:37;7.65;;;4.10;;
20026;SDS011;10174;42.688;23.344;2023-11-19T05:41:03;6.35;;;4.13;;
20026;SDS011;10174;42.688;23.344;2023-11-19T05:43:32;7.47;;;4.13;;
20026;SDS011;10174;42.688;23.344;2023-11-19T05:45:58;6.95;;;4.20;;
20026;SDS011;10174;42.688;23.344;2023-11-19T05:48:25;6.53;;;3.85;;
20026;SDS011;10174;42.688;23.344;2023-11-19T05:50:51;6.03;;;3.60;;
20026;SDS011;10174;42.688;23.344;2023-11-19T05:53:17;7.15;;;4.40;;
20026;SDS011;10174;42.688;23.344;2023-11-19T05:55:42;6.13;;;4.00;;
20026;SDS011;10174;42.688;23.344;2023-11-19T05:58:19;11.02;;;5.40;;
20026;SDS011;10174;42.688;23.344;2023-11-19T06:00:48;5.68;;;4.05;;
20026;SDS011;10174;42.688;23.344;2023-11-19T06:03:15;7.35;;;4.22;;
20026;SDS011;10174;42.688;23.344;2023-11-19T06:05:41;9.00;;;4.20;;
20026;SDS011;10174;42.688;23.344;2023-11-19T06:08:09;7.32;;;4.10;;
20026;SDS011;10174;42.688;23.344;2023-11-19T06:10:35;8.10;;;3.85;;
20026;SDS011;10174;42.688;23.344;2023-11-19T06:13:00;7.25;;;3.92;;
20026;SDS011;10174;42.688;23.344;2023-11-19T06:15:29;7.40;;;4.10;;
20026;SDS011;10174;42.688;23.344;2023-11-19T06:17:55;6.28;;;3.92;;
20026;SDS011;10174;42.688;23.344;2023-11-19T06:20:21;8.82;;;4.07;;
20026;SDS011;10174;42.688;23.344;2023-11-19T06:22:47;8.35;;;4.20;;
20026;SDS011;10174;42.688;23.344;2023-11-19T06:25:12;8.20;;;4.80;;
20026;SDS011;10174;42.688;23.344;2023-11-19T06:27:40;5.05;;;3.63;;
20026;SDS011;10174;42.688;23.344;2023-11-19T06:30:06;7.18;;;3.78;;
20026;SDS011;10174;42.688;23.344;2023-11-19T06:32:32;9.02;;;4.32;;
20026;SDS011;10174;42.688;23.344;2023-11-19T06:34:58;9.10;;;4.47;;
20026;SDS011;10174;42.688;23.344;2023-11-19T06:37:23;6.75;;;3.95;;
20026;SDS011;10174;42.688;23.344;2023-11-19T06:39:49;6.55;;;3.45;;
20026;SDS011;10174;42.688;23.344;2023-11-19T06:42:14;6.72;;;4.05;;
20026;SDS011;10174;42.688;23.344;2023-11-19T06:44:39;7.47;;;4.35;;
20026;SDS011;10174;42.688;23.344;2023-11-19T06:47:05;7.32;;;4.57;;
20026;SDS011;10174;42.688;23.344;2023-11-19T06:49:31;9.13;;;4.40;;
20026;SDS011;10174;42.688;23.344;2023-11-19T06:51:57;6.28;;;3.95;;
20026;SDS011;10174;42.688;23.344;2023-11-19T06:54:22;7.60;;;4.43;;
20026;SDS011;10174;42.688;23.344;2023-11-19T06:56:48;8.70;;;4.80;;
20026;SDS011;10174;42.688;23.344;2023-11-19T06:59:13;11.07;;;4.53;;
20026;SDS011;10174;42.688;23.344;2023-11-19T07:01:39;7.53;;;3.72;;
20026;SDS011;10174;42.688;23.344;2023-11-19T07:04:07;8.07;;;4.07;;
20026;SDS011;10174;42.688;23.344;2023-11-19T07:06:35;5.55;;;4.10;;
20026;SDS011;10174;42.688;23.344;2023-11-19T07:09:01;7.63;;;4.07;;
20026;SDS011;10174;42.688;23.344;2023-11-19T07:11:38;7.75;;;4.30;;
20026;SDS011;10174;42.688;23.344;2023-11-19T07:14:04;7.70;;;4.10;;
20026;SDS011;10174;42.688;23.344;2023-11-19T07:16:34;8.43;;;4.68;;
20026;SDS011;10174;42.688;23.344;2023-11-19T07:19:02;8.90;;;4.72;;
20026;SDS011;10174;42.688;23.344;2023-11-19T07:21:28;5.80;;;3.97;;
20026;SDS011;10174;42.688;23.344;2023-11-19T07:23:54;8.73;;;4.50;;
20026;SDS011;10174;42.688;23.344;2023-11-19T07:26:22;8.82;;;4.30;;
20026;SDS011;10174;42.688;23.344;2023-11-19T07:28:51;6.57;;;4.10;;
20026;SDS011;10174;42.688;23.344;2023-11-19T07:31:16;7.68;;;4.50;;
20026;SDS011;10174;42.688;23.344;2023-11-19T07:33:45;8.43;;;4.55;;
20026;SDS011;10174;42.688;23.344;2023-11-19T07:36:12;6.97;;;4.18;;
20026;SDS011;10174;42.688;23.344;2023-11-19T07:38:39;9.90;;;4.50;;
20026;SDS011;10174;42.688;23.344;2023-11-19T07:41:05;8.43;;;4.60;;
20026;SDS011;10174;42.688;23.344;2023-11-19T07:43:31;7.85;;;4.53;;
20026;SDS011;10174;42.688;23.344;2023-11-19T07:45:57;7.57;;;4.78;;
20026;SDS011;10174;42.688;23.344;2023-11-19T07:48:24;8.98;;;5.47;;
20026;SDS011;10174;42.688;23.344;2023-11-19T07:50:50;7.90;;;4.75;;
20026;SDS011;10174;42.688;23.344;2023-11-19T07:53:16;8.88;;;5.03;;
20026;SDS011;10174;42.688;23.344;2023-11-19T07:55:41;9.93;;;5.05;;
20026;SDS011;10174;42.688;23.344;2023-11-19T07:58:07;9.32;;;4.95;;
20026;SDS011;10174;42.688;23.344;2023-11-19T08:00:32;9.25;;;5.10;;
20026;SDS011;10174;42.688;23.344;2023-11-19T08:02:58;7.15;;;4.65;;
20026;SDS011;10174;42.688;23.344;2023-11-19T08:05:23;6.75;;;4.43;;
20026;SDS011;10174;42.688;23.344;2023-11-19T08:07:49;8.10;;;4.53;;
20026;SDS011;10174;42.688;23.344;2023-11-19T08:10:16;9.45;;;4.78;;
20026;SDS011;10174;42.688;23.344;2023-11-19T08:12:41;8.90;;;5.28;;
20026;SDS011;10174;42.688;23.344;2023-11-19T08:15:07;7.65;;;4.60;;
20026;SDS011;10174;42.688;23.344;2023-11-19T08:17:33;8.13;;;4.80;;
20026;SDS011;10174;42.688;23.344;2023-11-19T08:19:58;7.85;;;4.40;;
20026;SDS011;10174;42.688;23.344;2023-11-19T08:22:25;9.48;;;4.68;;
20026;SDS011;10174;42.688;23.344;2023-11-19T08:24:50;8.65;;;4.88;;
20026;SDS011;10174;42.688;23.344;2023-11-19T08:27:16;7.47;;;4.65;;
20026;SDS011;10174;42.688;23.344;2023-11-19T08:29:41;8.68;;;5.18;;
20026;SDS011;10174;42.688;23.344;2023-11-19T08:32:06;7.28;;;4.53;;
20026;SDS011;10174;42.688;23.344;2023-11-19T08:34:32;8.80;;;4.72;;
20026;SDS011;10174;42.688;23.344;2023-11-19T08:36:57;11.05;;;5.45;;
20026;SDS011;10174;42.688;23.344;2023-11-19T08:39:23;8.63;;;5.20;;
20026;SDS011;10174;42.688;23.344;2023-11-19T08:41:50;8.35;;;4.90;;
20026;SDS011;10174;42.688;23.344;2023-11-19T08:44:16;9.23;;;4.93;;
20026;SDS011;10174;42.688;23.344;2023-11-19T08:46:48;9.93;;;5.82;;
20026;SDS011;10174;42.688;23.344;2023-11-19T08:49:14;13.88;;;5.13;;
20026;SDS011;10174;42.688;23.344;2023-11-19T08:51:40;9.85;;;5.25;;
20026;SDS011;10174;42.688;23.344;2023-11-19T08:54:05;10.77;;;4.82;;
20026;SDS011;10174;42.688;23.344;2023-11-19T08:56:30;10.43;;;5.25;;
20026;SDS011;10174;42.688;23.344;2023-11-19T08:58:58;9.52;;;4.90;;
20026;SDS011;10174;42.688;23.344;2023-11-19T09:01:23;10.48;;;5.90;;
20026;SDS011;10174;42.688;23.344;2023-11-19T09:03:49;8.73;;;4.65;;
20026;SDS011;10174;42.688;23.344;2023-11-19T09:06:15;8.00;;;4.63;;
20026;SDS011;10174;42.688;23.344;2023-11-19T09:08:42;9.82;;;4.70;;
20026;SDS011;10174;42.688;23.344;2023-11-19T09:11:07;7.57;;;4.57;;
20026;SDS011;10174;42.688;23.344;2023-11-19T09:13:34;8.73;;;5.18;;
20026;SDS011;10174;42.688;23.344;2023-11-19T09:16:00;8.40;;;4.43;;
20026;SDS011;10174;42.688;23.344;2023-11-19T09:18:28;7.90;;;4.55;;
20026;SDS011;10174;42.688;23.344;2023-11-19T09:20:54;9.88;;;4.55;;
20026;SDS011;10174;42.688;23.344;2023-11-19T09:23:19;7.90;;;4.80;;
20026;SDS011;10174;42.688;23.344;2023-11-19T09:25:45;10.70;;;5.03;;
20026;SDS011;10174;42.688;23.344;2023-11-19T09:28:10;8.98;;;4.30;;
20026;SDS011;10174;42.688;23.344;2023-11-19T09:30:36;9.25;;;4.90;;
20026;SDS011;10174;42.688;23.344;2023-11-19T09:33:01;10.65;;;5.35;;
20026;SDS011;10174;42.688;23.344;2023-11-19T09:35:27;10.27;;;4.97;;
20026;SDS011;10174;42.688;23.344;2023-11-19T09:37:52;10.35;;;4.63;;
20026;SDS011;10174;42.688;23.344;2023-11-19T09:40:18;11.27;;;5.75;;
20026;SDS011;10174;42.688;23.344;2023-11-19T09:42:44;9.00;;;5.10;;
20026;SDS011;10174;42.688;23.344;2023-11-19T09:45:16;9.10;;;5.43;;
20026;SDS011;10174;42.688;23.344;2023-11-19T09:47:43;7.70;;;4.63;;
20026;SDS011;10174;42.688;23.344;2023-11-19T09:50:16;6.50;;;3.72;;
20026;SDS011;10174;42.688;23.344;2023-11-19T09:52:46;8.43;;;4.22;;
20026;SDS011;10174;42.688;23.344;2023-11-19T09:55:12;8.95;;;4.88;;
20026;SDS011;10174;42.688;23.344;2023-11-19T09:57:38;7.50;;;4.25;;
20026;SDS011;10174;42.688;23.344;2023-11-19T10:00:05;10.13;;;4.57;;
20026;SDS011;10174;42.688;23.344;2023-11-19T10:02:33;6.75;;;3.65;;
20026;SDS011;10174;42.688;23.344;2023-11-19T10:05:01;7.40;;;3.95;;
20026;SDS011;10174;42.688;23.344;2023-11-19T10:07:31;6.40;;;4.18;;
20026;SDS011;10174;42.688;23.344;2023-11-19T10:09:58;6.20;;;4.00;;
20026;SDS011;10174;42.688;23.344;2023-11-19T10:12:29;8.15;;;4.80;;
20026;SDS011;10174;42.688;23.344;2023-11-19T10:14:58;6.45;;;4.30;;
20026;SDS011;10174;42.688;23.344;2023-11-19T10:17:28;10.05;;;5.25;;
20026;SDS011;10174;42.688;23.344;2023-11-19T10:19:56;10.05;;;5.25;;
20026;SDS011;10174;42.688;23.344;2023-11-19T10:22:22;9.60;;;5.30;;
20026;SDS011;10174;42.688;23.344;2023-11-19T10:24:49;9.23;;;4.18;;
20026;SDS011;10174;42.688;23.344;2023-11-19T10:27:15;8.95;;;4.53;;
20026;SDS011;10174;42.688;23.344;2023-11-19T10:29:40;11.95;;;5.35;;
20026;SDS011;10174;42.688;23.344;2023-11-19T10:32:10;6.82;;;3.92;;
20026;SDS011;10174;42.688;23.344;2023-11-19T10:34:37;7.03;;;4.07;;
20026;SDS011;10174;42.688;23.344;2023-11-19T10:37:04;10.57;;;4.05;;
20026;SDS011;10174;42.688;23.344;2023-11-19T10:42:21;9.35;;;4.80;;
20026;SDS011;10174;42.688;23.344;2023-11-19T10:44:47;8.70;;;4.80;;
20026;SDS011;10174;42.688;23.344;2023-11-19T10:47:16;10.27;;;4.75;;
20026;SDS011;10174;42.688;23.344;2023-11-19T10:49:44;9.15;;;3.90;;
20026;SDS011;10174;42.688;23.344;2023-11-19T10:52:14;9.10;;;4.15;;
20026;SDS011;10174;42.688;23.344;2023-11-19T10:54:44;7.38;;;3.97;;
20026;SDS011;10174;42.688;23.344;2023-11-19T10:57:14;7.90;;;3.80;;
20026;SDS011;10174;42.688;23.344;2023-11-19T10:59:47;5.78;;;3.90;;
20026;SDS011;10174;42.688;23.344;2023-11-19T11:02:15;6.88;;;3.85;;
20026;SDS011;10174;42.688;23.344;2023-11-19T11:04:44;7.38;;;3.92;;
20026;SDS011;10174;42.688;23.344;2023-11-19T11:07:12;4.22;;;2.92;;
20026;SDS011;10174;42.688;23.344;2023-11-19T11:09:41;5.65;;;4.10;;
20026;SDS011;10174;42.688;23.344;2023-11-19T11:12:07;10.45;;;3.70;;
20026;SDS011;10174;42.688;23.344;2023-11-19T11:14:35;6.45;;;4.07;;
20026;SDS011;10174;42.688;23.344;2023-11-19T11:17:03;7.10;;;3.85;;
20026;SDS011;10174;42.688;23.344;2023-11-19T11:19:33;6.15;;;3.72;;
20026;SDS011;10174;42.688;23.344;2023-11-19T11:21:59;5.75;;;3.22;;
20026;SDS011;10174;42.688;23.344;2023-11-19T11:24:32;6.78;;;3.08;;
20026;SDS011;10174;42.688;23.344;2023-11-19T11:38:39;4.18;;;3.00;;
20026;SDS011;10174;42.688;23.344;2023-11-19T11:41:16;5.28;;;3.03;;
20026;SDS011;10174;42.688;23.344;2023-11-19T11:43:45;4.00;;;2.95;;
20026;SDS011;10174;42.688;23.344;2023-11-19T11:46:57;4.20;;;2.60;;
20026;SDS011;10174;42.688;23.344;2023-11-19T11:59:51;6.55;;;4.03;;
20026;SDS011;10174;42.688;23.344;2023-11-19T12:02:20;10.05;;;4.47;;
20026;SDS011;10174;42.688;23.344;2023-11-19T12:04:48;5.40;;;3.70;;
20026;SDS011;10174;42.688;23.344;2023-11-19T12:10:08;6.82;;;3.33;;
20026;SDS011;10174;42.688;23.344;2023-11-19T12:12:33;5.75;;;3.50;;
20026;SDS011;10174;42.688;23.344;2023-11-19T12:19:59;5.75;;;3.50;;
20026;SDS011;10174;42.688;23.344;2023-11-19T12:22:28;5.30;;;3.40;;
20026;SDS011;10174;42.688;23.344;2023-11-19T12:24:54;6.97;;;3.65;;
20026;SDS011;10174;42.688;23.344;2023-11-19T12:27:20;6.60;;;3.90;;
20026;SDS011;10174;42.688;23.344;2023-11-19T12:29:48;8.35;;;3.97;;
20026;SDS011;10174;42.688;23.344;2023-11-19T12:32:14;4.78;;;3.13;;
20026;SDS011;10174;42.688;23.344;2023-11-19T12:34:40;8.00;;;3.78;;
20026;SDS011;10174;42.688;23.344;2023-11-19T12:37:06;9.50;;;3.92;;
20026;SDS011;10174;42.688;23.344;2023-11-19T12:39:32;7.30;;;3.63;;
20026;SDS011;10174;42.688;23.344;2023-11-19T12:41:57;8.50;;;4.30;;
20026;SDS011;10174;42.688;23.344;2023-11-19T12:44:26;8.65;;;3.55;;
20026;SDS011;10174;42.688;23.344;2023-11-19T12:47:04;6.97;;;3.80;;
20026;SDS011;10174;42.688;23.344;2023-11-19T12:49:36;8.48;;;4.68;;
20026;SDS011;10174;42.688;23.344;2023-11-19T12:52:02;7.47;;;4.22;;
20026;SDS011;10174;42.688;23.344;2023-11-19T12:54:36;6.97;;;3.88;;
20026;SDS011;10174;42.688;23.344;2023-11-19T12:57:02;6.50;;;4.05;;
20026;SDS011;10174;42.688;23.344;2023-11-19T12:59:30;7.70;;;4.03;;
20026;SDS011;10174;42.688;23.344;2023-11-19T13:01:56;8.52;;;4.28;;
20026;SDS011;10174;42.688;23.344;2023-11-19T13:04:21;8.00;;;4.20;;
20026;SDS011;10174;42.688;23.344;2023-11-19T13:06:47;7.88;;;4.55;;
20026;SDS011;10174;42.688;23.344;2023-11-19T13:11:48;10.05;;;4.28;;
20026;SDS011;10174;42.688;23.344;2023-11-19T13:14:14;13.20;;;4.72;;
20026;SDS011;10174;42.688;23.344;2023-11-19T13:16:39;6.88;;;4.05;;
20026;SDS011;10174;42.688;23.344;2023-11-19T13:19:05;7.85;;;4.57;;
20026;SDS011;10174;42.688;23.344;2023-11-19T13:21:30;7.63;;;4.15;;
20026;SDS011;10174;42.688;23.344;2023-11-19T13:23:56;8.77;;;4.28;;
20026;SDS011;10174;42.688;23.344;2023-11-19T13:26:22;6.88;;;3.78;;
20026;SDS011;10174;42.688;23.344;2023-11-19T13:28:48;7.07;;;4.03;;
20026;SDS011;10174;42.688;23.344;2023-11-19T13:31:14;7.70;;;3.80;;
20026;SDS011;10174;42.688;23.344;2023-11-19T13:33:39;9.15;;;4.43;;
20026;SDS011;10174;42.688;23.344;2023-11-19T13:36:05;9.18;;;5.10;;
20026;SDS011;10174;42.688;23.344;2023-11-19T13:38:32;11.27;;;5.00;;
20026;SDS011;10174;42.688;23.344;2023-11-19T13:40:59;10.90;;;4.97;;
20026;SDS011;10174;42.688;23.344;2023-11-19T13:43:25;10.70;;;5.35;;
20026;SDS011;10174;42.688;23.344;2023-11-19T13:45:51;13.18;;;5.43;;
20026;SDS011;10174;42.688;23.344;2023-11-19T13:48:18;13.68;;;5.03;;
20026;SDS011;10174;42.688;23.344;2023-11-19T13:50:43;8.80;;;5.15;;
20026;SDS011;10174;42.688;23.344;2023-11-19T13:53:09;13.80;;;5.68;;
20026;SDS011;10174;42.688;23.344;2023-11-19T13:55:34;7.97;;;4.47;;
20026;SDS011;10174;42.688;23.344;2023-11-19T13:57:59;7.47;;;4.68;;
20026;SDS011;10174;42.688;23.344;2023-11-19T14:00:25;9.57;;;4.93;;
20026;SDS011;10174;42.688;23.344;2023-11-19T14:02:50;9.75;;;5.07;;
20026;SDS011;10174;42.688;23.344;2023-11-19T14:05:17;9.48;;;5.20;;
20026;SDS011;10174;42.688;23.344;2023-11-19T14:07:42;11.20;;;5.28;;
20026;SDS011;10174;42.688;23.344;2023-11-19T14:10:09;10.52;;;5.78;;
20026;SDS011;10174;42.688;23.344;2023-11-19T14:12:36;9.95;;;4.82;;
20026;SDS011;10174;42.688;23.344;2023-11-19T14:15:02;8.20;;;5.03;;
20026;SDS011;10174;42.688;23.344;2023-11-19T14:17:30;9.10;;;5.10;;
20026;SDS011;10174;42.688;23.344;2023-11-19T14:19:56;8.30;;;4.90;;
20026;SDS011;10174;42.688;23.344;2023-11-19T14:22:21;8.65;;;4.80;;
20026;SDS011;10174;42.688;23.344;2023-11-19T14:24:47;9.13;;;4.93;;
20026;SDS011;10174;42.688;23.344;2023-11-19T14:27:12;9.95;;;5.35;;
20026;SDS011;10174;42.688;23.344;2023-11-19T14:29:38;10.30;;;5.85;;
20026;SDS011;10174;42.688;23.344;2023-11-19T14:32:04;10.30;;;5.38;;
20026;SDS011;10174;42.688;23.344;2023-11-19T14:34:30;10.13;;;5.47;;
20026;SDS011;10174;42.688;23.344;2023-11-19T14:36:56;8.52;;;5.22;;
20026;SDS011;10174;42.688;23.344;2023-11-19T14:39:22;9.98;;;5.40;;
20026;SDS011;10174;42.688;23.344;2023-11-19T14:41:47;10.85;;;5.50;;
20026;SDS011;10174;42.688;23.344;2023-11-19T14:44:13;12.07;;;5.75;;
20026;SDS011;10174;42.688;23.344;2023-11-19T14:46:38;9.50;;;5.40;;
20026;SDS011;10174;42.688;23.344;2023-11-19T14:49:03;10.85;;;5.15;;
20026;SDS011;10174;42.688;23.344;2023-11-19T14:51:29;10.82;;;5.30;;
20026;SDS011;10174;42.688;23.344;2023-11-19T14:53:55;11.15;;;5.63;;
20026;SDS011;10174;42.688;23.344;2023-11-19T14:56:21;15.55;;;5.82;;
20026;SDS011;10174;42.688;23.344;2023-11-19T14:58:46;10.57;;;5.65;;
20026;SDS011;10174;42.688;23.344;2023-11-19T15:01:12;12.05;;;5.45;;
20026;SDS011;10174;42.688;23.344;2023-11-19T15:03:38;10.23;;;5.70;;
20026;SDS011;10174;42.688;23.344;2023-11-19T15:06:04;10.10;;;5.65;;